sensor_id;sensor_type;location;lat;lon;timestamp;temperature;humidity
37998;DHT22;24079;51.824;4.682;2023-08-08T00:02:17;16.70;99.90
37998;DHT22;24079;51.824;4.682;2023-08-08T00:04:43;16.70;99.90
37998;DHT22;24079;51.824;4.682;2023-08-08T00:07:09;16.70;99.90
37998;DHT22;24079;51.824;4.682;2023-08-08T00:09:36;16.70;99.90
37998;DHT22;24079;51.824;4.682;2023-08-08T00:12:03;16.70;99.90
37998;DHT22;24079;51.824;4.682;2023-08-08T00:14:30;16.80;99.90
37998;DHT22;24079;51.824;4.682;2023-08-08T00:16:56;16.70;99.90
37998;DHT22;24079;51.824;4.682;2023-08-08T00:19:22;16.60;99.90
37998;DHT22;24079;51.824;4.682;2023-08-08T00:21:48;16.60;99.90
37998;DHT22;24079;51.824;4.682;2023-08-08T00:24:14;16.70;99.90
37998;DHT22;24079;51.824;4.682;2023-08-08T00:26:40;16.80;99.90
37998;DHT22;24079;51.824;4.682;2023-08-08T00:29:06;16.70;99.90
37998;DHT22;24079;51.824;4.682;2023-08-08T00:31:33;16.80;99.90
37998;DHT22;24079;51.824;4.682;2023-08-08T00:33:59;16.80;99.90
37998;DHT22;24079;51.824;4.682;2023-08-08T00:36:25;16.80;99.90
37998;DHT22;24079;51.824;4.682;2023-08-08T00:38:51;16.70;99.90
37998;DHT22;24079;51.824;4.682;2023-08-08T00:41:18;16.70;99.90
37998;DHT22;24079;51.824;4.682;2023-08-08T00:43:44;16.70;99.90
37998;DHT22;24079;51.824;4.682;2023-08-08T00:46:10;16.80;99.90
37998;DHT22;24079;51.824;4.682;2023-08-08T00:48:37;16.80;99.90
37998;DHT22;24079;51.824;4.682;2023-08-08T00:51:03;16.60;99.90
37998;DHT22;24079;51.824;4.682;2023-08-08T00:53:30;16.60;99.90
37998;DHT22;24079;51.824;4.682;2023-08-08T00:56:16;16.50;99.90
37998;DHT22;24079;51.824;4.682;2023-08-08T00:58:43;16.60;99.90
37998;DHT22;24079;51.824;4.682;2023-08-08T01:01:12;16.50;99.90
37998;DHT22;24079;51.824;4.682;2023-08-08T01:03:38;16.50;99.90
37998;DHT22;24079;51.824;4.682;2023-08-08T01:06:24;16.40;99.90
37998;DHT22;24079;51.824;4.682;2023-08-08T01:09:16;16.40;99.90
37998;DHT22;24079;51.824;4.682;2023-08-08T01:11:45;16.50;99.90
37998;DHT22;24079;51.824;4.682;2023-08-08T01:14:15;16.50;99.90
37998;DHT22;24079;51.824;4.682;2023-08-08T01:16:42;16.50;99.90
37998;DHT22;24079;51.824;4.682;2023-08-08T01:19:13;16.50;99.90
37998;DHT22;24079;51.824;4.682;2023-08-08T01:21:43;16.50;99.90
37998;DHT22;24079;51.824;4.682;2023-08-08T01:24:24;16.40;99.90
37998;DHT22;24079;51.824;4.682;2023-08-08T01:26:56;16.50;99.90
37998;DHT22;24079;51.824;4.682;2023-08-08T01:29:22;16.50;99.90
37998;DHT22;24079;51.824;4.682;2023-08-08T01:31:48;16.50;99.90
37998;DHT22;24079;51.824;4.682;2023-08-08T01:34:14;16.50;99.90
37998;DHT22;24079;51.824;4.682;2023-08-08T01:36:59;16.50;99.90
37998;DHT22;24079;51.824;4.682;2023-08-08T01:39:30;16.40;99.90
37998;DHT22;24079;51.824;4.682;2023-08-08T01:41:58;16.40;99.90
37998;DHT22;24079;51.824;4.682;2023-08-08T01:44:26;16.40;99.90
37998;DHT22;24079;51.824;4.682;2023-08-08T01:46:54;16.40;99.90
37998;DHT22;24079;51.824;4.682;2023-08-08T01:49:20;16.30;99.90
37998;DHT22;24079;51.824;4.682;2023-08-08T01:51:47;16.40;99.90
37998;DHT22;24079;51.824;4.682;2023-08-08T01:54:14;16.40;99.90
37998;DHT22;24079;51.824;4.682;2023-08-08T01:56:40;16.40;99.90
37998;DHT22;24079;51.824;4.682;2023-08-08T01:59:06;16.40;99.90
37998;DHT22;24079;51.824;4.682;2023-08-08T02:01:33;16.40;99.90
37998;DHT22;24079;51.824;4.682;2023-08-08T02:03:59;16.40;99.90
37998;DHT22;24079;51.824;4.682;2023-08-08T02:06:25;16.40;99.90
37998;DHT22;24079;51.824;4.682;2023-08-08T02:08:51;16.30;99.90
37998;DHT22;24079;51.824;4.682;2023-08-08T02:11:17;16.30;99.90
37998;DHT22;24079;51.824;4.682;2023-08-08T02:13:43;16.40;99.90
37998;DHT22;24079;51.824;4.682;2023-08-08T02:16:09;16.40;99.90
37998;DHT22;24079;51.824;4.682;2023-08-08T02:18:36;16.30;99.90
37998;DHT22;24079;51.824;4.682;2023-08-08T02:21:07;16.20;99.90
37998;DHT22;24079;51.824;4.682;2023-08-08T02:23:33;16.20;99.90
37998;DHT22;24079;51.824;4.682;2023-08-08T02:26:00;16.30;99.90
37998;DHT22;24079;51.824;4.682;2023-08-08T02:28:26;16.30;99.90
37998;DHT22;24079;51.824;4.682;2023-08-08T02:30:53;16.30;99.90
37998;DHT22;24079;51.824;4.682;2023-08-08T02:33:19;16.20;99.90
37998;DHT22;24079;51.824;4.682;2023-08-08T02:35:45;16.20;99.90
37998;DHT22;24079;51.824;4.682;2023-08-08T02:38:11;16.20;99.90
37998;DHT22;24079;51.824;4.682;2023-08-08T02:40:37;16.20;99.90
37998;DHT22;24079;51.824;4.682;2023-08-08T02:43:04;16.20;99.90
37998;DHT22;24079;51.824;4.682;2023-08-08T02:45:31;16.20;99.90
37998;DHT22;24079;51.824;4.682;2023-08-08T02:47:56;16.20;99.90
37998;DHT22;24079;51.824;4.682;2023-08-08T02:50:22;16.20;99.90
37998;DHT22;24079;51.824;4.682;2023-08-08T02:52:49;16.10;99.90
37998;DHT22;24079;51.824;4.682;2023-08-08T02:55:15;16.10;99.90
37998;DHT22;24079;51.824;4.682;2023-08-08T02:57:41;16.20;99.90
37998;DHT22;24079;51.824;4.682;2023-08-08T03:00:07;16.20;99.90
37998;DHT22;24079;51.824;4.682;2023-08-08T03:02:34;16.20;99.90
37998;DHT22;24079;51.824;4.682;2023-08-08T03:05:00;16.20;99.90
37998;DHT22;24079;51.824;4.682;2023-08-08T03:07:26;16.10;99.90
37998;DHT22;24079;51.824;4.682;2023-08-08T03:09:52;16.00;99.90
37998;DHT22;24079;51.824;4.682;2023-08-08T03:12:18;16.00;99.90
37998;DHT22;24079;51.824;4.682;2023-08-08T03:14:45;16.00;99.90
37998;DHT22;24079;51.824;4.682;2023-08-08T03:17:11;16.00;99.90
37998;DHT22;24079;51.824;4.682;2023-08-08T03:19:37;16.00;99.90
37998;DHT22;24079;51.824;4.682;2023-08-08T03:22:03;16.00;99.90
37998;DHT22;24079;51.824;4.682;2023-08-08T03:24:29;15.90;99.90
37998;DHT22;24079;51.824;4.682;2023-08-08T03:26:55;15.80;99.90
37998;DHT22;24079;51.824;4.682;2023-08-08T03:29:21;15.70;99.90
37998;DHT22;24079;51.824;4.682;2023-08-08T03:31:47;15.70;99.90
37998;DHT22;24079;51.824;4.682;2023-08-08T03:34:13;15.70;99.90
37998;DHT22;24079;51.824;4.682;2023-08-08T03:36:41;15.60;99.90
37998;DHT22;24079;51.824;4.682;2023-08-08T03:39:07;15.60;99.90
37998;DHT22;24079;51.824;4.682;2023-08-08T03:41:34;15.50;99.90
37998;DHT22;24079;51.824;4.682;2023-08-08T03:44:00;15.50;99.90
37998;DHT22;24079;51.824;4.682;2023-08-08T03:46:28;15.40;99.90
37998;DHT22;24079;51.824;4.682;2023-08-08T03:48:55;15.40;99.90
37998;DHT22;24079;51.824;4.682;2023-08-08T03:51:21;15.50;99.90
37998;DHT22;24079;51.824;4.682;2023-08-08T03:53:47;15.50;99.90
37998;DHT22;24079;51.824;4.682;2023-08-08T03:56:13;15.50;99.90
37998;DHT22;24079;51.824;4.682;2023-08-08T03:58:39;15.50;99.90
37998;DHT22;24079;51.824;4.682;2023-08-08T04:01:05;15.60;99.90
37998;DHT22;24079;51.824;4.682;2023-08-08T04:43:22;15.70;99.90
37998;DHT22;24079;51.824;4.682;2023-08-08T04:45:47;15.80;99.90
37998;DHT22;24079;51.824;4.682;2023-08-08T04:48:13;15.80;99.90
37998;DHT22;24079;51.824;4.682;2023-08-08T04:50:39;15.70;99.90
37998;DHT22;24079;51.824;4.682;2023-08-08T04:53:06;15.80;99.90
37998;DHT22;24079;51.824;4.682;2023-08-08T04:55:32;15.80;99.90
37998;DHT22;24079;51.824;4.682;2023-08-08T04:57:59;15.80;99.90
37998;DHT22;24079;51.824;4.682;2023-08-08T05:00:26;15.80;99.90
37998;DHT22;24079;51.824;4.682;2023-08-08T05:02:52;15.70;99.90
37998;DHT22;24079;51.824;4.682;2023-08-08T05:05:18;15.70;99.90
37998;DHT22;24079;51.824;4.682;2023-08-08T05:07:44;15.70;99.90
37998;DHT22;24079;51.824;4.682;2023-08-08T05:10:10;15.80;99.90
37998;DHT22;24079;51.824;4.682;2023-08-08T05:12:36;15.90;99.90
37998;DHT22;24079;51.824;4.682;2023-08-08T05:15:03;15.80;99.90
37998;DHT22;24079;51.824;4.682;2023-08-08T05:17:32;15.80;99.90
37998;DHT22;24079;51.824;4.682;2023-08-08T05:19:58;15.80;99.90
37998;DHT22;24079;51.824;4.682;2023-08-08T05:22:23;15.80;99.90
37998;DHT22;24079;51.824;4.682;2023-08-08T05:24:50;15.80;99.90
37998;DHT22;24079;51.824;4.682;2023-08-08T05:27:16;15.90;99.90
37998;DHT22;24079;51.824;4.682;2023-08-08T05:29:42;15.90;99.90
37998;DHT22;24079;51.824;4.682;2023-08-08T05:32:08;15.90;99.90
37998;DHT22;24079;51.824;4.682;2023-08-08T05:34:34;15.90;99.90
37998;DHT22;24079;51.824;4.682;2023-08-08T05:37:01;16.00;99.90
37998;DHT22;24079;51.824;4.682;2023-08-08T05:39:27;16.10;99.90
37998;DHT22;24079;51.824;4.682;2023-08-08T05:41:53;16.30;99.90
37998;DHT22;24079;51.824;4.682;2023-08-08T05:44:19;16.50;99.90
37998;DHT22;24079;51.824;4.682;2023-08-08T05:46:45;16.50;99.90
37998;DHT22;24079;51.824;4.682;2023-08-08T05:49:11;16.50;99.90
37998;DHT22;24079;51.824;4.682;2023-08-08T05:51:39;16.60;99.90
37998;DHT22;24079;51.824;4.682;2023-08-08T05:54:06;16.50;99.90
37998;DHT22;24079;51.824;4.682;2023-08-08T05:56:38;16.60;99.90
37998;DHT22;24079;51.824;4.682;2023-08-08T05:59:04;16.50;99.90
37998;DHT22;24079;51.824;4.682;2023-08-08T06:01:31;16.70;99.90
37998;DHT22;24079;51.824;4.682;2023-08-08T06:03:58;16.70;99.90
37998;DHT22;24079;51.824;4.682;2023-08-08T06:06:26;16.70;99.90
37998;DHT22;24079;51.824;4.682;2023-08-08T06:08:52;16.70;99.90
37998;DHT22;24079;51.824;4.682;2023-08-08T06:11:18;16.70;99.90
37998;DHT22;24079;51.824;4.682;2023-08-08T06:13:44;16.80;99.90
37998;DHT22;24079;51.824;4.682;2023-08-08T06:16:11;16.90;99.90
37998;DHT22;24079;51.824;4.682;2023-08-08T06:18:37;17.00;99.90
37998;DHT22;24079;51.824;4.682;2023-08-08T06:21:02;16.90;99.90
37998;DHT22;24079;51.824;4.682;2023-08-08T06:23:28;17.00;99.90
37998;DHT22;24079;51.824;4.682;2023-08-08T06:25:54;17.00;99.90
37998;DHT22;24079;51.824;4.682;2023-08-08T06:28:19;17.10;99.90
37998;DHT22;24079;51.824;4.682;2023-08-08T06:30:45;17.30;99.90
37998;DHT22;24079;51.824;4.682;2023-08-08T06:33:11;17.30;99.90
37998;DHT22;24079;51.824;4.682;2023-08-08T06:35:38;17.70;99.90
37998;DHT22;24079;51.824;4.682;2023-08-08T06:38:04;18.10;99.90
37998;DHT22;24079;51.824;4.682;2023-08-08T06:40:31;18.10;99.90
37998;DHT22;24079;51.824;4.682;2023-08-08T06:42:57;18.10;99.90
37998;DHT22;24079;51.824;4.682;2023-08-08T06:45:23;18.10;99.90
37998;DHT22;24079;51.824;4.682;2023-08-08T06:47:50;18.10;99.90
37998;DHT22;24079;51.824;4.682;2023-08-08T06:50:16;18.20;99.90
37998;DHT22;24079;51.824;4.682;2023-08-08T06:52:43;18.30;99.90
37998;DHT22;24079;51.824;4.682;2023-08-08T06:55:09;18.60;99.90
37998;DHT22;24079;51.824;4.682;2023-08-08T06:57:35;18.70;99.90
37998;DHT22;24079;51.824;4.682;2023-08-08T07:00:02;18.60;99.90
37998;DHT22;24079;51.824;4.682;2023-08-08T07:02:31;18.50;99.90
37998;DHT22;24079;51.824;4.682;2023-08-08T07:04:57;18.40;99.90
37998;DHT22;24079;51.824;4.682;2023-08-08T07:07:23;18.30;99.90
37998;DHT22;24079;51.824;4.682;2023-08-08T07:09:50;18.40;99.90
37998;DHT22;24079;51.824;4.682;2023-08-08T07:12:16;18.50;99.90
37998;DHT22;24079;51.824;4.682;2023-08-08T07:14:42;18.70;99.90
37998;DHT22;24079;51.824;4.682;2023-08-08T07:17:08;18.80;99.90
37998;DHT22;24079;51.824;4.682;2023-08-08T07:19:35;18.80;99.90
37998;DHT22;24079;51.824;4.682;2023-08-08T07:22:02;19.00;99.90
37998;DHT22;24079;51.824;4.682;2023-08-08T07:24:28;18.90;99.90
37998;DHT22;24079;51.824;4.682;2023-08-08T07:26:59;18.90;99.90
37998;DHT22;24079;51.824;4.682;2023-08-08T07:29:25;18.80;99.90
37998;DHT22;24079;51.824;4.682;2023-08-08T07:31:52;18.70;99.90
37998;DHT22;24079;51.824;4.682;2023-08-08T07:34:19;18.70;99.90
37998;DHT22;24079;51.824;4.682;2023-08-08T07:36:46;18.70;99.90
37998;DHT22;24079;51.824;4.682;2023-08-08T07:39:13;18.80;99.90
37998;DHT22;24079;51.824;4.682;2023-08-08T07:41:39;18.80;99.90
37998;DHT22;24079;51.824;4.682;2023-08-08T07:44:05;18.90;99.90
37998;DHT22;24079;51.824;4.682;2023-08-08T07:46:31;19.00;99.90
37998;DHT22;24079;51.824;4.682;2023-08-08T07:48:58;19.20;99.90
37998;DHT22;24079;51.824;4.682;2023-08-08T07:51:28;19.40;99.90
37998;DHT22;24079;51.824;4.682;2023-08-08T07:53:54;19.70;99.90
37998;DHT22;24079;51.824;4.682;2023-08-08T07:56:20;20.60;99.90
37998;DHT22;24079;51.824;4.682;2023-08-08T07:58:47;21.50;99.90
37998;DHT22;24079;51.824;4.682;2023-08-08T08:01:13;21.80;99.90
37998;DHT22;24079;51.824;4.682;2023-08-08T08:03:39;22.20;99.90
37998;DHT22;24079;51.824;4.682;2023-08-08T08:06:06;22.50;99.90
37998;DHT22;24079;51.824;4.682;2023-08-08T08:08:32;22.50;99.90
37998;DHT22;24079;51.824;4.682;2023-08-08T08:10:58;22.40;99.90
37998;DHT22;24079;51.824;4.682;2023-08-08T08:13:25;21.70;99.90
37998;DHT22;24079;51.824;4.682;2023-08-08T08:15:51;21.20;99.90
37998;DHT22;24079;51.824;4.682;2023-08-08T08:18:17;20.60;99.90
37998;DHT22;24079;51.824;4.682;2023-08-08T08:20:47;20.50;99.90
37998;DHT22;24079;51.824;4.682;2023-08-08T08:23:13;20.90;99.90
37998;DHT22;24079;51.824;4.682;2023-08-08T08:25:39;21.20;99.90
37998;DHT22;24079;51.824;4.682;2023-08-08T08:28:05;21.20;99.90
37998;DHT22;24079;51.824;4.682;2023-08-08T08:30:31;21.30;99.90
37998;DHT22;24079;51.824;4.682;2023-08-08T08:32:57;21.60;99.90
37998;DHT22;24079;51.824;4.682;2023-08-08T08:35:23;21.50;99.90
37998;DHT22;24079;51.824;4.682;2023-08-08T08:37:51;21.40;99.90
37998;DHT22;24079;51.824;4.682;2023-08-08T08:40:17;21.40;99.90
37998;DHT22;24079;51.824;4.682;2023-08-08T08:42:45;21.50;99.90
37998;DHT22;24079;51.824;4.682;2023-08-08T08:45:12;21.80;99.90
37998;DHT22;24079;51.824;4.682;2023-08-08T08:47:40;21.70;99.90
37998;DHT22;24079;51.824;4.682;2023-08-08T08:50:08;22.10;99.90
37998;DHT22;24079;51.824;4.682;2023-08-08T08:52:35;21.90;99.90
37998;DHT22;24079;51.824;4.682;2023-08-08T08:55:01;21.80;99.90
37998;DHT22;24079;51.824;4.682;2023-08-08T08:57:29;22.10;99.90
37998;DHT22;24079;51.824;4.682;2023-08-08T08:59:55;21.80;99.90
37998;DHT22;24079;51.824;4.682;2023-08-08T09:02:21;21.30;99.90
37998;DHT22;24079;51.824;4.682;2023-08-08T09:04:48;21.70;99.90
37998;DHT22;24079;51.824;4.682;2023-08-08T09:07:17;22.30;99.90
37998;DHT22;24079;51.824;4.682;2023-08-08T09:09:44;22.10;99.90
37998;DHT22;24079;51.824;4.682;2023-08-08T09:12:11;21.40;99.90
37998;DHT22;24079;51.824;4.682;2023-08-08T09:14:42;21.30;99.90
37998;DHT22;24079;51.824;4.682;2023-08-08T09:17:12;21.00;99.90
37998;DHT22;24079;51.824;4.682;2023-08-08T09:19:42;20.50;99.90
37998;DHT22;24079;51.824;4.682;2023-08-08T09:22:09;20.00;99.90
37998;DHT22;24079;51.824;4.682;2023-08-08T09:24:42;20.10;99.90
37998;DHT22;24079;51.824;4.682;2023-08-08T09:27:09;20.30;99.90
37998;DHT22;24079;51.824;4.682;2023-08-08T09:29:36;20.30;99.90
37998;DHT22;24079;51.824;4.682;2023-08-08T09:32:04;20.00;99.90
37998;DHT22;24079;51.824;4.682;2023-08-08T09:34:31;19.60;99.90
37998;DHT22;24079;51.824;4.682;2023-08-08T09:36:58;19.80;99.90
37998;DHT22;24079;51.824;4.682;2023-08-08T09:39:24;20.10;99.90
37998;DHT22;24079;51.824;4.682;2023-08-08T09:41:50;20.40;99.90
37998;DHT22;24079;51.824;4.682;2023-08-08T09:44:16;20.60;99.90
37998;DHT22;24079;51.824;4.682;2023-08-08T09:46:42;20.60;99.90
37998;DHT22;24079;51.824;4.682;2023-08-08T09:49:10;20.50;99.90
37998;DHT22;24079;51.824;4.682;2023-08-08T09:51:38;20.70;99.90
37998;DHT22;24079;51.824;4.682;2023-08-08T09:54:05;20.80;99.90
37998;DHT22;24079;51.824;4.682;2023-08-08T09:56:34;20.80;99.90
37998;DHT22;24079;51.824;4.682;2023-08-08T09:59:01;21.10;99.90
37998;DHT22;24079;51.824;4.682;2023-08-08T10:01:27;21.30;99.90
37998;DHT22;24079;51.824;4.682;2023-08-08T10:03:54;21.10;99.90
37998;DHT22;24079;51.824;4.682;2023-08-08T10:06:21;21.00;99.90
37998;DHT22;24079;51.824;4.682;2023-08-08T10:08:47;21.00;99.90
37998;DHT22;24079;51.824;4.682;2023-08-08T10:11:14;20.90;99.90
37998;DHT22;24079;51.824;4.682;2023-08-08T10:13:47;20.80;99.90
37998;DHT22;24079;51.824;4.682;2023-08-08T10:16:16;21.10;99.90
37998;DHT22;24079;51.824;4.682;2023-08-08T10:18:45;20.80;99.90
37998;DHT22;24079;51.824;4.682;2023-08-08T10:21:12;20.70;99.90
37998;DHT22;24079;51.824;4.682;2023-08-08T10:23:39;20.80;99.90
37998;DHT22;24079;51.824;4.682;2023-08-08T10:26:17;20.60;99.90
37998;DHT22;24079;51.824;4.682;2023-08-08T10:28:53;20.60;99.90
37998;DHT22;24079;51.824;4.682;2023-08-08T10:31:20;20.70;99.90
37998;DHT22;24079;51.824;4.682;2023-08-08T10:33:46;20.90;99.90
37998;DHT22;24079;51.824;4.682;2023-08-08T10:36:13;20.70;99.90
37998;DHT22;24079;51.824;4.682;2023-08-08T10:41:11;20.80;99.90
37998;DHT22;24079;51.824;4.682;2023-08-08T10:43:38;20.60;99.90
37998;DHT22;24079;51.824;4.682;2023-08-08T10:46:04;20.50;99.90
37998;DHT22;24079;51.824;4.682;2023-08-08T10:48:31;20.60;99.90
37998;DHT22;24079;51.824;4.682;2023-08-08T10:51:00;20.70;99.90
37998;DHT22;24079;51.824;4.682;2023-08-08T10:53:30;21.00;99.90
37998;DHT22;24079;51.824;4.682;2023-08-08T10:56:01;21.30;99.90
37998;DHT22;24079;51.824;4.682;2023-08-08T10:58:42;21.40;99.90
37998;DHT22;24079;51.824;4.682;2023-08-08T11:01:12;21.20;99.90
37998;DHT22;24079;51.824;4.682;2023-08-08T11:03:41;21.20;99.90
37998;DHT22;24079;51.824;4.682;2023-08-08T11:06:08;21.20;99.90
37998;DHT22;24079;51.824;4.682;2023-08-08T11:08:35;20.90;99.90
37998;DHT22;24079;51.824;4.682;2023-08-08T11:11:06;21.00;99.90
37998;DHT22;24079;51.824;4.682;2023-08-08T11:13:33;21.30;99.90
37998;DHT22;24079;51.824;4.682;2023-08-08T11:15:59;21.50;99.90
37998;DHT22;24079;51.824;4.682;2023-08-08T11:18:28;21.50;99.90
37998;DHT22;24079;51.824;4.682;2023-08-08T11:20:54;21.40;99.90
37998;DHT22;24079;51.824;4.682;2023-08-08T11:23:20;21.20;99.90
37998;DHT22;24079;51.824;4.682;2023-08-08T11:25:46;20.80;99.90
37998;DHT22;24079;51.824;4.682;2023-08-08T11:28:13;20.60;99.90
37998;DHT22;24079;51.824;4.682;2023-08-08T11:30:42;21.00;99.90
37998;DHT22;24079;51.824;4.682;2023-08-08T11:33:10;21.30;99.90
37998;DHT22;24079;51.824;4.682;2023-08-08T11:35:43;21.70;99.90
37998;DHT22;24079;51.824;4.682;2023-08-08T11:38:11;21.60;99.90
37998;DHT22;24079;51.824;4.682;2023-08-08T11:40:38;21.50;99.90
37998;DHT22;24079;51.824;4.682;2023-08-08T11:43:05;21.40;99.90
37998;DHT22;24079;51.824;4.682;2023-08-08T11:45:32;21.20;99.90
37998;DHT22;24079;51.824;4.682;2023-08-08T11:48:00;21.40;99.90
37998;DHT22;24079;51.824;4.682;2023-08-08T11:50:27;21.30;99.90
37998;DHT22;24079;51.824;4.682;2023-08-08T11:52:55;21.20;99.90
37998;DHT22;24079;51.824;4.682;2023-08-08T11:55:27;21.20;99.90
37998;DHT22;24079;51.824;4.682;2023-08-08T11:57:54;21.10;99.90
37998;DHT22;24079;51.824;4.682;2023-08-08T12:00:29;21.10;99.90
37998;DHT22;24079;51.824;4.682;2023-08-08T12:02:56;21.00;99.90
37998;DHT22;24079;51.824;4.682;2023-08-08T12:05:23;20.60;99.90
37998;DHT22;24079;51.824;4.682;2023-08-08T12:07:49;20.30;99.90
37998;DHT22;24079;51.824;4.682;2023-08-08T12:10:19;20.30;99.90
37998;DHT22;24079;51.824;4.682;2023-08-08T12:12:46;20.80;99.90
37998;DHT22;24079;51.824;4.682;2023-08-08T12:15:13;21.20;99.90
37998;DHT22;24079;51.824;4.682;2023-08-08T12:17:39;21.10;99.90
37998;DHT22;24079;51.824;4.682;2023-08-08T12:20:07;21.20;99.90
37998;DHT22;24079;51.824;4.682;2023-08-08T12:22:34;21.10;99.90
37998;DHT22;24079;51.824;4.682;2023-08-08T12:25:00;21.00;99.90
37998;DHT22;24079;51.824;4.682;2023-08-08T12:27:26;21.20;99.90
37998;DHT22;24079;51.824;4.682;2023-08-08T12:29:52;21.40;99.90
37998;DHT22;24079;51.824;4.682;2023-08-08T12:32:20;21.50;99.90
37998;DHT22;24079;51.824;4.682;2023-08-08T12:34:50;21.60;99.90
37998;DHT22;24079;51.824;4.682;2023-08-08T12:37:16;21.50;99.90
37998;DHT22;24079;51.824;4.682;2023-08-08T12:39:42;21.70;99.90
37998;DHT22;24079;51.824;4.682;2023-08-08T12:42:08;21.90;99.90
37998;DHT22;24079;51.824;4.682;2023-08-08T12:44:34;22.10;99.90
37998;DHT22;24079;51.824;4.682;2023-08-08T12:47:00;22.30;99.90
37998;DHT22;24079;51.824;4.682;2023-08-08T12:49:26;22.30;99.90
37998;DHT22;24079;51.824;4.682;2023-08-08T12:51:52;22.20;99.90
37998;DHT22;24079;51.824;4.682;2023-08-08T12:54:22;22.10;99.90
37998;DHT22;24079;51.824;4.682;2023-08-08T12:56:48;22.00;99.90
37998;DHT22;24079;51.824;4.682;2023-08-08T12:59:14;21.80;99.90
37998;DHT22;24079;51.824;4.682;2023-08-08T13:01:40;21.60;99.90
37998;DHT22;24079;51.824;4.682;2023-08-08T13:04:06;21.80;99.90
37998;DHT22;24079;51.824;4.682;2023-08-08T13:06:32;21.80;99.90
37998;DHT22;24079;51.824;4.682;2023-08-08T13:09:00;22.00;99.90
37998;DHT22;24079;51.824;4.682;2023-08-08T13:11:26;22.00;99.90
37998;DHT22;24079;51.824;4.682;2023-08-08T13:13:52;22.10;99.90
37998;DHT22;24079;51.824;4.682;2023-08-08T13:16:17;22.10;99.90
37998;DHT22;24079;51.824;4.682;2023-08-08T13:18:43;22.20;99.90
37998;DHT22;24079;51.824;4.682;2023-08-08T13:21:09;22.10;99.90
37998;DHT22;24079;51.824;4.682;2023-08-08T13:23:36;22.00;99.90
37998;DHT22;24079;51.824;4.682;2023-08-08T13:26:02;21.50;99.90
37998;DHT22;24079;51.824;4.682;2023-08-08T13:28:29;21.20;99.90
37998;DHT22;24079;51.824;4.682;2023-08-08T13:30:55;21.20;99.90
37998;DHT22;24079;51.824;4.682;2023-08-08T13:33:20;21.20;99.90
37998;DHT22;24079;51.824;4.682;2023-08-08T13:35:46;21.00;99.90
37998;DHT22;24079;51.824;4.682;2023-08-08T13:38:12;21.10;99.90
37998;DHT22;24079;51.824;4.682;2023-08-08T13:40:43;20.90;99.90
37998;DHT22;24079;51.824;4.682;2023-08-08T13:43:09;20.90;99.90
37998;DHT22;24079;51.824;4.682;2023-08-08T13:45:36;21.10;99.90
37998;DHT22;24079;51.824;4.682;2023-08-08T13:48:02;21.00;99.90
37998;DHT22;24079;51.824;4.682;2023-08-08T13:50:27;21.20;99.90
37998;DHT22;24079;51.824;4.682;2023-08-08T13:52:54;20.90;99.90
37998;DHT22;24079;51.824;4.682;2023-08-08T13:55:20;21.00;99.90
37998;DHT22;24079;51.824;4.682;2023-08-08T13:57:45;20.90;99.90
37998;DHT22;24079;51.824;4.682;2023-08-08T14:00:11;20.90;99.90
37998;DHT22;24079;51.824;4.682;2023-08-08T14:02:38;21.20;99.90
37998;DHT22;24079;51.824;4.682;2023-08-08T14:05:04;21.40;99.90
37998;DHT22;24079;51.824;4.682;2023-08-08T14:07:32;21.10;99.90
37998;DHT22;24079;51.824;4.682;2023-08-08T14:09:59;20.90;99.90
37998;DHT22;24079;51.824;4.682;2023-08-08T14:12:25;21.10;99.90
37998;DHT22;24079;51.824;4.682;2023-08-08T14:14:50;21.10;99.90
37998;DHT22;24079;51.824;4.682;2023-08-08T14:17:16;20.80;99.90
37998;DHT22;24079;51.824;4.682;2023-08-08T14:19:42;20.70;99.90
37998;DHT22;24079;51.824;4.682;2023-08-08T14:22:08;20.50;99.90
37998;DHT22;24079;51.824;4.682;2023-08-08T14:24:34;20.40;99.90
37998;DHT22;24079;51.824;4.682;2023-08-08T14:27:00;20.40;99.90
37998;DHT22;24079;51.824;4.682;2023-08-08T14:29:26;20.40;99.90
37998;DHT22;24079;51.824;4.682;2023-08-08T14:31:52;20.40;99.90
37998;DHT22;24079;51.824;4.682;2023-08-08T14:34:19;20.40;99.90
37998;DHT22;24079;51.824;4.682;2023-08-08T14:36:45;20.30;99.90
37998;DHT22;24079;51.824;4.682;2023-08-08T14:39:11;20.20;99.90
37998;DHT22;24079;51.824;4.682;2023-08-08T14:41:37;20.00;99.90
37998;DHT22;24079;51.824;4.682;2023-08-08T14:44:03;20.10;99.90
37998;DHT22;24079;51.824;4.682;2023-08-08T14:46:30;20.20;99.90
37998;DHT22;24079;51.824;4.682;2023-08-08T14:48:59;20.50;99.90
37998;DHT22;24079;51.824;4.682;2023-08-08T14:51:25;20.70;99.90
37998;DHT22;24079;51.824;4.682;2023-08-08T14:53:51;20.70;99.90
37998;DHT22;24079;51.824;4.682;2023-08-08T14:56:17;20.50;99.90
37998;DHT22;24079;51.824;4.682;2023-08-08T14:58:43;20.50;99.90
37998;DHT22;24079;51.824;4.682;2023-08-08T15:01:10;20.20;99.90
37998;DHT22;24079;51.824;4.682;2023-08-08T15:03:36;20.20;99.90
37998;DHT22;24079;51.824;4.682;2023-08-08T15:06:02;19.80;99.90
37998;DHT22;24079;51.824;4.682;2023-08-08T15:08:28;19.70;99.90
37998;DHT22;24079;51.824;4.682;2023-08-08T15:10:54;19.70;99.90
37998;DHT22;24079;51.824;4.682;2023-08-08T15:13:21;19.80;99.90
37998;DHT22;24079;51.824;4.682;2023-08-08T15:15:47;19.70;99.90
37998;DHT22;24079;51.824;4.682;2023-08-08T15:18:13;19.70;99.90
37998;DHT22;24079;51.824;4.682;2023-08-08T15:20:40;19.60;99.90
37998;DHT22;24079;51.824;4.682;2023-08-08T15:23:06;19.50;99.90
37998;DHT22;24079;51.824;4.682;2023-08-08T15:25:37;19.70;99.90
37998;DHT22;24079;51.824;4.682;2023-08-08T15:28:03;19.70;99.90
37998;DHT22;24079;51.824;4.682;2023-08-08T15:30:30;19.80;99.90
37998;DHT22;24079;51.824;4.682;2023-08-08T15:32:56;19.80;99.90
37998;DHT22;24079;51.824;4.682;2023-08-08T15:35:22;19.80;99.90
37998;DHT22;24079;51.824;4.682;2023-08-08T15:37:48;19.70;99.90
37998;DHT22;24079;51.824;4.682;2023-08-08T15:40:14;19.70;99.90
37998;DHT22;24079;51.824;4.682;2023-08-08T15:42:41;19.60;99.90
37998;DHT22;24079;51.824;4.682;2023-08-08T15:45:09;19.40;99.90
37998;DHT22;24079;51.824;4.682;2023-08-08T15:47:36;19.50;99.90
37998;DHT22;24079;51.824;4.682;2023-08-08T15:50:02;19.30;99.90
37998;DHT22;24079;51.824;4.682;2023-08-08T15:52:28;19.20;99.90
37998;DHT22;24079;51.824;4.682;2023-08-08T15:54:54;19.00;99.90
37998;DHT22;24079;51.824;4.682;2023-08-08T15:57:20;19.00;99.90
37998;DHT22;24079;51.824;4.682;2023-08-08T15:59:46;19.20;99.90
37998;DHT22;24079;51.824;4.682;2023-08-08T16:02:12;19.10;99.90
37998;DHT22;24079;51.824;4.682;2023-08-08T16:04:38;19.20;99.90
37998;DHT22;24079;51.824;4.682;2023-08-08T16:07:04;19.30;99.90
37998;DHT22;24079;51.824;4.682;2023-08-08T16:09:30;19.30;99.90
37998;DHT22;24079;51.824;4.682;2023-08-08T16:11:56;19.30;99.90